createdAt,value
2023-01-18T00:02:55.579Z,-0.45
2023-01-18T00:07:48.714Z,-0.40
2023-01-18T00:12:42.157Z,-0.37
2023-01-18T00:17:47.689Z,-0.35
2023-01-18T00:22:40.756Z,-0.32
2023-01-18T00:27:33.747Z,-0.25
2023-01-18T00:32:26.830Z,-0.15
2023-01-18T00:37:19.650Z,-0.07
2023-01-18T00:42:29.857Z,-0.01
2023-01-18T00:47:22.668Z,0.04
2023-01-18T00:52:15.464Z,0.09
2023-01-18T00:57:08.241Z,0.13
2023-01-18T01:02:01.201Z,0.15
2023-01-18T01:06:54.288Z,0.18
2023-01-18T01:12:02.642Z,0.21
2023-01-18T01:17:13.220Z,0.24
2023-01-18T01:22:23.612Z,0.25
2023-01-18T01:27:17.557Z,0.26
2023-01-18T01:32:11.157Z,0.27
2023-01-18T01:37:05.810Z,0.29
2023-01-18T01:41:58.753Z,0.30
2023-01-18T01:46:57.131Z,0.31
2023-01-18T01:51:59.919Z,0.33
2023-01-18T01:56:57.662Z,0.33
2023-01-18T02:01:50.595Z,0.34
2023-01-18T02:06:43.527Z,0.37
2023-01-18T02:11:36.986Z,0.41
2023-01-18T02:16:45.506Z,0.44
2023-01-18T02:21:44.903Z,0.45
2023-01-18T02:26:52.702Z,0.46
2023-01-18T02:31:51.519Z,0.51
2023-01-18T02:37:18.312Z,0.55
2023-01-18T02:42:41.175Z,0.59
2023-01-18T02:47:35.176Z,0.63
2023-01-18T02:52:47.993Z,0.66
2023-01-18T02:57:41.665Z,0.70
2023-01-18T03:02:34.929Z,0.72
2023-01-18T03:07:33.615Z,0.75
2023-01-18T03:12:57.435Z,0.79
2023-01-18T03:18:13.260Z,0.81
2023-01-18T03:23:32.679Z,0.83
2023-01-18T03:28:48.742Z,0.87
2023-01-18T03:33:47.285Z,0.89
2023-01-18T03:38:43.632Z,0.93
2023-01-18T03:43:37.975Z,0.95
2023-01-18T03:48:32.665Z,0.99
2023-01-18T03:53:51.910Z,1.02
2023-01-18T03:58:46.444Z,1.05
2023-01-18T04:03:39.358Z,1.08
2023-01-18T04:08:32.248Z,1.10
2023-01-18T04:13:25.045Z,1.14
2023-01-18T04:18:17.869Z,1.17
2023-01-18T04:23:11.172Z,1.19
2023-01-18T04:28:04.012Z,1.22
2023-01-18T04:32:57.235Z,1.24
2023-01-18T04:37:54.275Z,1.27
2023-01-18T04:42:56.505Z,1.30
2023-01-18T04:47:49.499Z,1.34
2023-01-18T04:52:42.291Z,1.37
2023-01-18T04:57:35.329Z,1.40
2023-01-18T05:02:28.199Z,1.44
2023-01-18T05:07:21.014Z,1.46
2023-01-18T05:12:13.785Z,1.49
2023-01-18T05:17:07.506Z,1.51
2023-01-18T05:22:00.356Z,1.54
2023-01-18T05:26:53.262Z,1.56
2023-01-18T05:31:46.169Z,1.58
2023-01-18T05:36:38.990Z,1.59
2023-01-18T05:41:31.960Z,1.60
2023-01-18T05:46:24.756Z,1.60
2023-01-18T05:51:17.628Z,1.59
2023-01-18T05:56:10.807Z,1.57
2023-01-18T06:01:03.757Z,1.56
2023-01-18T06:05:57.940Z,1.55
2023-01-18T06:10:58.016Z,1.55
2023-01-18T06:15:52.062Z,1.56
2023-01-18T06:20:45.047Z,1.56
2023-01-18T06:25:38.283Z,1.57
2023-01-18T06:30:31.056Z,1.58
2023-01-18T06:35:24.013Z,1.58
2023-01-18T06:40:17.766Z,1.60
2023-01-18T06:45:11.318Z,1.61
2023-01-18T06:50:04.193Z,1.63
2023-01-18T06:54:57.025Z,1.65
2023-01-18T06:59:49.820Z,1.66
2023-01-18T07:04:48.218Z,1.68
2023-01-18T07:09:41.089Z,1.70
2023-01-18T07:14:33.883Z,1.71
2023-01-18T07:19:26.683Z,1.73
2023-01-18T07:24:19.608Z,1.76
2023-01-18T07:29:12.587Z,1.79
2023-01-18T07:34:05.993Z,1.81
2023-01-18T07:38:58.759Z,1.82
2023-01-18T07:43:54.186Z,1.87
2023-01-18T07:48:47.919Z,1.90
2023-01-18T07:53:41.295Z,1.91
2023-01-18T07:58:35.977Z,1.92
2023-01-18T08:03:28.814Z,1.93
2023-01-18T08:08:21.704Z,2.00
2023-01-18T08:13:14.506Z,2.06
2023-01-18T08:18:08.585Z,2.04
2023-01-18T08:23:02.665Z,2.09
2023-01-18T08:27:55.485Z,2.17
2023-01-18T08:32:48.325Z,2.24
2023-01-18T08:37:41.199Z,2.25
2023-01-18T08:42:34.003Z,2.28
2023-01-18T08:47:26.781Z,2.26
2023-01-18T08:52:20.118Z,2.23
2023-01-18T08:57:13.897Z,2.22
2023-01-18T09:02:07.326Z,2.21
2023-01-18T09:07:00.220Z,2.17
2023-01-18T09:11:53.065Z,2.14
2023-01-18T09:16:45.914Z,2.12
2023-01-18T09:21:38.703Z,2.11
2023-01-18T09:26:31.680Z,2.17
2023-01-18T09:31:28.148Z,2.21
2023-01-18T09:36:24.023Z,2.21
2023-01-18T09:41:23.064Z,2.20
2023-01-18T09:46:25.553Z,2.17
2023-01-18T09:51:26.710Z,2.17
2023-01-18T09:56:27.867Z,2.17
2023-01-18T10:01:24.838Z,2.18
2023-01-18T10:06:50.565Z,2.16
2023-01-18T10:11:59.786Z,2.16
2023-01-18T10:17:02.035Z,2.16
2023-01-18T10:22:09.963Z,2.17
2023-01-18T10:27:14.889Z,2.19
2023-01-18T10:32:18.826Z,2.20
2023-01-18T10:37:20.918Z,2.22
2023-01-18T10:42:48.011Z,2.22
2023-01-18T10:47:40.888Z,2.21
2023-01-18T10:52:33.873Z,2.22
2023-01-18T10:57:33.531Z,2.24
2023-01-18T11:02:36.079Z,2.24
2023-01-18T11:07:30.698Z,2.23
2023-01-18T11:12:34.890Z,2.22
2023-01-18T11:17:30.934Z,2.23
2023-01-18T11:22:25.608Z,2.23
2023-01-18T11:27:25.149Z,2.24
2023-01-18T11:32:25.908Z,2.26
2023-01-18T11:37:35.564Z,2.27
2023-01-18T11:42:35.739Z,2.28
2023-01-18T11:47:54.704Z,2.28
2023-01-18T11:53:01.462Z,2.25
2023-01-18T11:57:55.262Z,2.20
2023-01-18T12:03:26.652Z,2.16
2023-01-18T12:08:41.963Z,2.14
2023-01-18T12:13:37.836Z,2.14
2023-01-18T12:18:39.457Z,2.16
2023-01-18T12:24:09.853Z,2.19
2023-01-18T12:29:05.849Z,2.18
2023-01-18T12:34:15.973Z,2.16
2023-01-18T12:39:49.276Z,2.18
2023-01-18T12:45:14.783Z,2.27
2023-01-18T12:50:28.513Z,2.25
2023-01-18T12:55:25.822Z,2.13
2023-01-18T13:00:32.263Z,2.04
2023-01-18T13:05:51.081Z,1.98
2023-01-18T13:10:48.721Z,1.98
2023-01-18T13:16:17.103Z,1.99
2023-01-18T13:21:19.350Z,2.00
2023-01-18T13:26:30.720Z,2.00
2023-01-18T13:31:32.124Z,1.98
2023-01-18T13:36:25.340Z,1.94
2023-01-18T13:41:26.893Z,1.92
2023-01-18T13:46:25.296Z,1.90
2023-01-18T13:51:40.368Z,1.86
2023-01-18T13:56:37.598Z,1.79
2023-01-18T14:01:37.271Z,1.76
2023-01-18T14:06:37.610Z,1.71
2023-01-18T14:11:34.452Z,1.69
2023-01-18T14:16:31.499Z,1.64
2023-01-18T14:21:36.510Z,1.58
2023-01-18T14:26:32.990Z,1.54
2023-01-18T14:31:37.194Z,1.50
2023-01-18T14:36:30.429Z,1.46
2023-01-18T14:41:24.333Z,1.43
2023-01-18T14:46:27.624Z,1.40
2023-01-18T14:51:26.686Z,1.37
2023-01-18T14:56:25.129Z,1.35
2023-01-18T15:01:35.063Z,1.37
2023-01-18T15:06:32.876Z,1.36
2023-01-18T15:11:26.963Z,1.36
2023-01-18T15:16:23.203Z,1.37
2023-01-18T15:21:31.422Z,1.38
2023-01-18T15:26:40.006Z,1.37
2023-01-18T15:31:32.859Z,1.39
2023-01-18T15:36:25.857Z,1.41
2023-01-18T15:41:18.834Z,1.43
2023-01-18T15:46:17.223Z,1.42
2023-01-18T15:51:11.229Z,1.42
2023-01-18T15:56:08.024Z,1.40
2023-01-18T16:01:04.048Z,1.37
2023-01-18T16:05:59.344Z,1.37
2023-01-18T16:10:55.347Z,1.40
2023-01-18T16:16:14.332Z,1.41
2023-01-18T16:21:14.191Z,1.41
2023-01-18T16:26:07.055Z,1.40
2023-01-18T16:31:03.545Z,1.40
2023-01-18T16:35:56.544Z,1.40
2023-01-18T16:40:51.599Z,1.40
2023-01-18T16:45:45.473Z,1.39
2023-01-18T16:50:39.323Z,1.38
2023-01-18T16:55:32.151Z,1.39
2023-01-18T17:00:30.696Z,1.39
2023-01-18T17:05:24.025Z,1.38
2023-01-18T17:10:21.340Z,1.37
2023-01-18T17:15:15.333Z,1.37
2023-01-18T17:20:35.395Z,1.37
2023-01-18T17:25:28.683Z,1.37
2023-01-18T17:30:23.429Z,1.38
2023-01-18T17:35:18.455Z,1.38
2023-01-18T17:40:22.702Z,1.38
2023-01-18T17:45:17.740Z,1.38
2023-01-18T17:50:12.997Z,1.40
2023-01-18T17:55:07.970Z,1.40
2023-01-18T18:00:00.865Z,1.40
2023-01-18T18:04:53.841Z,1.39
2023-01-18T18:09:46.702Z,1.40
2023-01-18T18:14:40.365Z,1.38
2023-01-18T18:19:34.216Z,1.37
2023-01-18T18:24:27.102Z,1.35
2023-01-18T18:29:20.614Z,1.36
2023-01-18T18:34:13.685Z,1.37
2023-01-18T18:39:07.801Z,1.38
2023-01-18T18:44:00.661Z,1.38
2023-01-18T18:48:55.026Z,1.38
2023-01-18T18:53:47.957Z,1.38
2023-01-18T18:58:41.276Z,1.38
2023-01-18T19:03:36.755Z,1.39
2023-01-18T19:08:29.600Z,1.38
2023-01-18T19:13:23.178Z,1.39
2023-01-18T19:18:17.293Z,1.40
2023-01-18T19:23:10.535Z,1.41
2023-01-18T19:28:03.317Z,1.42
2023-01-18T19:32:56.356Z,1.42
2023-01-18T19:37:50.760Z,1.42
2023-01-18T19:42:47.167Z,1.42
2023-01-18T19:47:40.313Z,1.41
2023-01-18T19:52:33.741Z,1.41
2023-01-18T19:57:27.577Z,1.42
2023-01-18T20:02:20.969Z,1.42
2023-01-18T20:07:16.578Z,1.43
2023-01-18T20:12:10.005Z,1.42
2023-01-18T20:17:03.003Z,1.43
2023-01-18T20:21:56.234Z,1.43
2023-01-18T20:26:49.092Z,1.43
2023-01-18T20:31:44.715Z,1.45
2023-01-18T20:36:42.866Z,1.46
2023-01-18T20:41:36.032Z,1.45
2023-01-18T20:46:29.141Z,1.43
2023-01-18T20:51:22.865Z,1.44
2023-01-18T20:56:28.286Z,1.45
2023-01-18T21:01:22.438Z,1.46
2023-01-18T21:06:30.373Z,1.48
2023-01-18T21:11:26.699Z,1.49
2023-01-18T21:16:20.154Z,1.49
2023-01-18T21:21:13.696Z,1.49
2023-01-18T21:26:12.679Z,1.49
2023-01-18T21:31:06.486Z,1.51
2023-01-18T21:36:05.412Z,1.51
2023-01-18T21:41:18.209Z,1.53
2023-01-18T21:46:12.288Z,1.56
2023-01-18T21:51:23.683Z,1.56
2023-01-18T21:56:16.579Z,1.58
2023-01-18T22:01:18.259Z,1.59
2023-01-18T22:06:12.234Z,1.59
2023-01-18T22:11:05.066Z,1.59
2023-01-18T22:15:57.866Z,1.60
2023-01-18T22:20:57.518Z,1.62
2023-01-18T22:25:55.200Z,1.62
2023-01-18T22:30:48.699Z,1.63
2023-01-18T22:35:42.607Z,1.65
2023-01-18T22:40:35.565Z,1.67
2023-01-18T22:45:28.422Z,1.68
2023-01-18T22:50:22.144Z,1.68
2023-01-18T22:55:15.093Z,1.69
2023-01-18T23:00:08.738Z,1.68
2023-01-18T23:05:01.592Z,1.68
2023-01-18T23:09:54.890Z,1.71
2023-01-18T23:15:10.470Z,1.71
2023-01-18T23:20:03.688Z,1.72
2023-01-18T23:24:56.536Z,1.74
2023-01-18T23:29:56.801Z,1.75
2023-01-18T23:34:49.991Z,1.76
2023-01-18T23:40:00.636Z,1.76
2023-01-18T23:45:11.357Z,1.76
2023-01-18T23:50:22.133Z,1.76
2023-01-18T23:55:14.980Z,1.76
